Time;durP1;ratioP1;P1;durP2;ratioP2;P2;SDS_P1;SDS_P2;PMS_P1;PMS_P2;Temp;Humidity;BMP_temperature;BMP_pressure;BME280_temperature;BME280_humidity;BME280_pressure;Samples;Min_cycle;Max_cycle;Signal;HPM_P1;HPM_P2
2021/05/01 00:01:09;;;;;;;13.40;11.77;;;8.60;99.90;;;;;;5018872;28;20182;-75
2021/05/01 00:03:35;;;;;;;14.23;12.83;;;8.60;99.90;;;;;;5018061;28;20182;-75
2021/05/01 00:06:00;;;;;;;13.63;12.27;;;8.60;99.90;;;;;;5013773;28;20182;-75
2021/05/01 00:08:29;;;;;;;14.00;12.67;;;8.60;99.90;;;;;;5022418;28;20197;-75
2021/05/01 00:11:00;;;;;;;14.13;12.70;;;8.60;99.90;;;;;;5018751;28;20211;-75
2021/05/01 00:13:26;;;;;;;13.47;11.93;;;8.60;99.90;;;;;;5018281;28;20443;-75
2021/05/01 00:15:52;;;;;;;14.10;12.70;;;8.70;99.90;;;;;;5015052;28;20462;-74
2021/05/01 00:18:20;;;;;;;15.03;11.80;;;8.70;99.90;;;;;;5021443;28;20179;-74
2021/05/01 00:20:46;;;;;;;12.83;11.47;;;8.70;99.90;;;;;;5015535;28;20509;-75
2021/05/01 00:23:12;;;;;;;13.97;12.50;;;8.80;99.90;;;;;;5017120;28;20441;-75
2021/05/01 00:25:38;;;;;;;13.93;12.63;;;8.70;99.90;;;;;;5020503;28;20183;-75
2021/05/01 00:28:04;;;;;;;12.80;11.50;;;8.70;99.90;;;;;;5018158;28;20588;-75
2021/05/01 00:30:29;;;;;;;14.77;13.17;;;8.70;99.90;;;;;;5016642;28;20671;-75
2021/05/01 00:32:56;;;;;;;13.77;12.37;;;8.70;99.90;;;;;;5009605;28;20448;-75
2021/05/01 00:35:22;;;;;;;14.17;12.87;;;8.70;99.90;;;;;;5018377;28;20206;-75
2021/05/01 00:37:48;;;;;;;12.63;11.33;;;8.70;99.90;;;;;;5017708;28;21171;-75
2021/05/01 00:40:14;;;;;;;12.60;11.40;;;8.70;99.90;;;;;;5018519;28;20201;-75
2021/05/01 00:42:40;;;;;;;12.30;11.03;;;8.70;99.90;;;;;;5022613;28;20251;-75
2021/05/01 00:45:06;;;;;;;12.43;11.10;;;8.70;99.90;;;;;;5018797;28;20526;-75
2021/05/01 00:47:32;;;;;;;12.63;11.33;;;8.70;99.90;;;;;;5017989;28;20199;-75
2021/05/01 00:49:57;;;;;;;14.63;13.20;;;8.70;99.90;;;;;;5021135;28;20452;-75
2021/05/01 00:52:23;;;;;;;14.50;13.00;;;8.70;99.90;;;;;;5020598;28;20182;-75
2021/05/01 00:54:49;;;;;;;15.83;13.00;;;8.60;99.90;;;;;;5022689;28;20205;-75
2021/05/01 00:57:15;;;;;;;12.63;11.20;;;8.60;99.90;;;;;;5018733;28;20776;-75
2021/05/01 00:59:41;;;;;;;12.63;11.33;;;8.60;99.90;;;;;;5018948;28;20186;-75
2021/05/01 01:02:07;;;;;;;14.17;12.67;;;8.60;99.90;;;;;;5018450;28;20261;-75
2021/05/01 01:04:33;;;;;;;13.00;11.70;;;8.60;99.90;;;;;;5020748;28;20894;-75
2021/05/01 01:06:59;;;;;;;11.33;10.07;;;8.60;99.90;;;;;;5016090;28;20477;-75
2021/05/01 01:09:24;;;;;;;12.43;11.23;;;8.60;99.90;;;;;;5017622;28;20183;-75
2021/05/01 01:11:51;;;;;;;17.03;11.33;;;8.60;99.90;;;;;;5017005;28;20601;-75
2021/05/01 01:14:16;;;;;;;13.57;12.07;;;8.60;99.90;;;;;;5021904;28;20201;-75
2021/05/01 01:16:45;;;;;;;11.47;10.27;;;8.60;99.90;;;;;;5010455;28;20460;-75
2021/05/01 01:19:12;;;;;;;14.80;12.00;;;8.50;99.90;;;;;;5020394;28;20348;-75
2021/05/01 01:21:47;;;;;;;10.90;9.83;;;8.50;99.90;;;;;;5018099;28;20757;-75
2021/05/01 01:24:14;;;;;;;13.57;11.23;;;8.50;99.90;;;;;;5018868;28;20970;-75
2021/05/01 01:26:41;;;;;;;13.97;11.20;;;8.60;99.90;;;;;;5012801;28;20811;-75
2021/05/01 01:29:08;;;;;;;11.60;10.50;;;8.50;99.90;;;;;;5021809;28;20437;-75
2021/05/01 01:31:35;;;;;;;13.53;12.03;;;8.60;99.90;;;;;;5011443;28;20445;-74
2021/05/01 01:34:02;;;;;;;11.43;10.37;;;8.70;99.90;;;;;;5014039;28;20448;-75
2021/05/01 01:36:28;;;;;;;13.20;11.90;;;8.70;99.90;;;;;;5006780;28;20433;-76
2021/05/01 01:38:53;;;;;;;12.53;11.30;;;8.70;99.90;;;;;;5020174;28;20444;-76
2021/05/01 01:41:19;;;;;;;12.80;10.87;;;8.60;99.90;;;;;;5011500;28;20512;-75
2021/05/01 01:43:45;;;;;;;11.60;10.40;;;8.40;99.90;;;;;;5022383;28;20776;-75
2021/05/01 01:46:11;;;;;;;10.90;9.90;;;8.40;99.90;;;;;;5019191;28;20429;-75
2021/05/01 01:48:37;;;;;;;10.83;9.70;;;8.40;99.90;;;;;;5020268;28;20681;-75
2021/05/01 01:51:03;;;;;;;10.63;9.70;;;8.40;99.90;;;;;;5016161;28;20680;-75
2021/05/01 01:53:28;;;;;;;10.30;8.87;;;8.40;99.90;;;;;;5017273;28;20273;-75
2021/05/01 01:55:54;;;;;;;10.13;9.20;;;8.30;99.90;;;;;;5019241;28;20658;-75
2021/05/01 01:58:21;;;;;;;10.83;9.77;;;8.30;99.90;;;;;;5018894;28;20183;-75
2021/05/01 02:00:48;;;;;;;12.00;9.93;;;8.30;99.90;;;;;;5019495;28;20174;-75
2021/05/01 02:03:14;;;;;;;9.97;9.00;;;8.30;99.90;;;;;;5019603;28;20429;-75
2021/05/01 02:05:41;;;;;;;12.00;9.63;;;8.30;99.90;;;;;;5014078;28;21013;-75
2021/05/01 02:08:08;;;;;;;11.00;9.90;;;8.20;99.90;;;;;;5017304;28;20445;-75
2021/05/01 02:10:33;;;;;;;10.00;9.00;;;8.20;99.90;;;;;;5016893;28;20440;-75
2021/05/01 02:12:59;;;;;;;9.60;8.80;;;8.20;99.90;;;;;;5021059;28;20439;-76
2021/05/01 02:15:25;;;;;;;10.17;9.17;;;8.20;99.90;;;;;;5014339;28;20202;-75
2021/05/01 02:17:53;;;;;;;8.90;8.10;;;8.20;99.90;;;;;;5020846;28;20182;-75
2021/05/01 02:20:30;;;;;;;9.77;8.53;;;8.20;99.90;;;;;;5018815;28;20229;-74
2021/05/01 02:22:59;;;;;;;9.47;8.50;;;8.20;99.90;;;;;;5018939;28;20512;-74
2021/05/01 02:25:25;;;;;;;9.43;8.53;;;8.20;99.90;;;;;;5018344;28;20767;-74
2021/05/01 02:27:53;;;;;;;10.03;9.13;;;8.20;99.90;;;;;;5020813;28;20429;-75
2021/05/01 02:30:22;;;;;;;10.57;9.47;;;8.20;99.90;;;;;;5019436;28;20909;-75
2021/05/01 02:32:48;;;;;;;10.77;9.77;;;8.10;99.90;;;;;;5017934;28;20448;-75
2021/05/01 02:35:17;;;;;;;10.23;8.93;;;8.10;99.90;;;;;;5019395;28;20471;-74
2021/05/01 02:37:44;;;;;;;9.70;8.73;;;8.00;99.90;;;;;;5016170;28;20476;-74
2021/05/01 02:40:12;;;;;;;10.50;9.27;;;8.00;99.90;;;;;;5018913;28;20433;-75
2021/05/01 02:42:39;;;;;;;9.23;8.37;;;8.00;99.90;;;;;;5020891;28;20439;-75
2021/05/01 02:45:06;;;;;;;9.13;8.20;;;8.00;99.90;;;;;;5017907;28;20937;-74
2021/05/01 02:47:33;;;;;;;8.87;8.07;;;8.00;99.90;;;;;;5019112;28;20441;-74
2021/05/01 02:49:58;;;;;;;9.53;8.63;;;8.00;99.90;;;;;;5017626;28;20999;-75
2021/05/01 02:52:24;;;;;;;8.77;8.00;;;8.10;99.90;;;;;;5013895;28;20437;-75
2021/05/01 02:54:50;;;;;;;9.50;8.60;;;8.10;99.90;;;;;;5019023;28;20206;-75
2021/05/01 02:57:15;;;;;;;9.07;7.87;;;8.10;99.90;;;;;;5016619;28;20182;-74
2021/05/01 02:59:41;;;;;;;8.90;8.10;;;8.10;99.90;;;;;;5019807;28;20190;-75
2021/05/01 03:02:06;;;;;;;8.73;7.83;;;8.10;99.90;;;;;;5018486;28;20189;-75
2021/05/01 03:04:32;;;;;;;9.10;8.20;;;8.10;99.90;;;;;;5018922;28;20616;-75
2021/05/01 03:06:58;;;;;;;9.10;8.20;;;8.10;99.90;;;;;;5017071;28;20178;-75
2021/05/01 03:09:24;;;;;;;10.70;8.53;;;8.10;99.90;;;;;;5021328;28;20277;-74
2021/05/01 03:11:49;;;;;;;9.40;8.43;;;8.10;99.90;;;;;;5019228;28;20241;-75
2021/05/01 03:14:15;;;;;;;10.83;8.33;;;8.10;99.90;;;;;;5036788;28;20216;-75
2021/05/01 03:16:40;;;;;;;9.33;8.33;;;8.10;99.90;;;;;;5014183;28;20527;-75
2021/05/01 03:19:06;;;;;;;9.03;8.13;;;8.10;99.90;;;;;;5022604;28;20183;-75
2021/05/01 03:21:33;;;;;;;8.33;7.53;;;8.10;99.90;;;;;;5015931;28;20209;-75
2021/05/01 03:23:59;;;;;;;11.53;8.40;;;8.10;99.90;;;;;;5019163;28;21597;-75
2021/05/01 03:26:25;;;;;;;8.53;7.70;;;8.10;99.90;;;;;;5015331;28;20898;-74
2021/05/01 03:28:50;;;;;;;9.10;8.20;;;8.10;99.90;;;;;;5018505;28;20437;-75
2021/05/01 03:31:16;;;;;;;8.60;7.70;;;8.00;99.90;;;;;;5015775;28;20233;-75
2021/05/01 03:33:42;;;;;;;8.60;7.73;;;8.10;99.90;;;;;;5019952;28;20225;-74
2021/05/01 03:36:08;;;;;;;7.40;6.70;;;8.10;99.90;;;;;;5016653;28;20205;-75
2021/05/01 03:38:34;;;;;;;11.07;9.97;;;8.10;99.90;;;;;;5016296;28;20232;-75
2021/05/01 03:41:00;;;;;;;8.40;7.67;;;8.20;99.90;;;;;;5020948;28;20440;-74
2021/05/01 03:43:26;;;;;;;8.20;7.47;;;8.20;99.90;;;;;;5019049;28;20184;-74
2021/05/01 03:45:52;;;;;;;8.97;8.03;;;8.10;99.90;;;;;;5019350;28;20484;-74
2021/05/01 03:48:17;;;;;;;10.20;8.63;;;8.10;99.90;;;;;;5020714;28;20198;-74
2021/05/01 03:50:43;;;;;;;9.00;7.87;;;8.10;99.90;;;;;;5018284;28;20197;-74
2021/05/01 03:53:09;;;;;;;9.50;8.50;;;8.10;99.90;;;;;;5016593;28;20186;-75
2021/05/01 03:55:35;;;;;;;8.50;7.60;;;8.10;99.90;;;;;;5014839;28;20207;-75
2021/05/01 03:58:00;;;;;;;8.40;7.67;;;8.10;99.90;;;;;;5021493;28;20425;-74
2021/05/01 04:00:26;;;;;;;8.93;8.03;;;8.20;99.90;;;;;;5020932;28;20267;-75
2021/05/01 04:02:52;;;;;;;8.43;7.63;;;8.10;99.90;;;;;;5017587;28;20588;-74
2021/05/01 04:05:18;;;;;;;8.67;7.93;;;8.10;99.90;;;;;;5018936;28;20186;-74
2021/05/01 04:07:44;;;;;;;7.47;6.87;;;8.00;99.90;;;;;;5012268;28;20576;-75
2021/05/01 04:10:11;;;;;;;9.10;8.20;;;8.10;99.90;;;;;;5018368;28;20429;-74
2021/05/01 04:12:37;;;;;;;8.97;8.07;;;8.00;99.90;;;;;;5012089;28;20437;-74
2021/05/01 04:15:04;;;;;;;8.30;7.30;;;8.00;99.90;;;;;;5015427;28;20461;-75
2021/05/01 04:17:30;;;;;;;7.83;7.13;;;8.00;99.90;;;;;;5019421;28;20182;-75
2021/05/01 04:19:55;;;;;;;7.90;7.20;;;8.00;99.90;;;;;;5021995;28;20433;-74
2021/05/01 04:22:22;;;;;;;8.60;7.70;;;8.10;99.90;;;;;;5019862;28;20186;-75
2021/05/01 04:24:48;;;;;;;8.73;7.70;;;8.10;99.90;;;;;;5021522;28;20272;-74
2021/05/01 04:27:14;;;;;;;8.03;7.30;;;8.10;99.90;;;;;;5012577;28;20525;-75
2021/05/01 04:29:39;;;;;;;9.37;8.00;;;8.00;99.90;;;;;;5007018;28;20241;-75
2021/05/01 04:32:05;;;;;;;9.13;8.23;;;8.10;99.90;;;;;;5020094;28;20201;-74
2021/05/01 04:34:31;;;;;;;9.20;8.20;;;8.00;99.90;;;;;;5016366;28;20213;-75
2021/05/01 04:36:57;;;;;;;12.83;7.90;;;8.00;99.90;;;;;;5015494;28;20957;-74
2021/05/01 04:39:22;;;;;;;8.83;8.00;;;8.00;99.90;;;;;;5015270;28;21467;-74
2021/05/01 04:41:49;;;;;;;9.50;7.90;;;8.00;99.90;;;;;;5018387;28;20588;-74
2021/05/01 04:44:15;;;;;;;8.03;7.20;;;8.00;99.90;;;;;;5019212;28;20190;-75
2021/05/01 04:46:41;;;;;;;8.27;6.93;;;8.00;99.90;;;;;;5016853;28;20520;-75
2021/05/01 04:49:07;;;;;;;8.10;7.30;;;8.10;99.90;;;;;;5020700;28;20861;-75
2021/05/01 04:51:34;;;;;;;10.30;8.30;;;8.00;99.90;;;;;;5021958;28;20241;-75
2021/05/01 04:54:01;;;;;;;8.43;7.63;;;8.10;99.90;;;;;;5020711;28;20429;-75
2021/05/01 04:56:27;;;;;;;13.33;8.40;;;8.00;99.90;;;;;;5018071;28;20933;-74
2021/05/01 04:58:52;;;;;;;10.23;8.07;;;8.00;99.90;;;;;;5017269;28;20466;-75
2021/05/01 05:01:18;;;;;;;8.70;7.90;;;8.00;99.90;;;;;;5015460;28;20196;-75
2021/05/01 05:03:44;;;;;;;12.27;9.27;;;8.00;99.90;;;;;;5020446;28;20178;-74
2021/05/01 05:06:09;;;;;;;10.83;7.43;;;7.90;99.90;;;;;;5010680;28;20201;-74
2021/05/01 05:08:35;;;;;;;9.53;8.43;;;7.90;99.90;;;;;;5016325;28;20190;-74
2021/05/01 05:11:01;;;;;;;7.83;7.10;;;7.90;99.90;;;;;;5021034;28;20541;-75
2021/05/01 05:13:27;;;;;;;8.90;8.00;;;7.90;99.90;;;;;;5018984;28;20194;-75
2021/05/01 05:15:53;;;;;;;8.23;7.53;;;7.90;99.90;;;;;;5018163;28;20305;-74
2021/05/01 05:18:19;;;;;;;11.10;8.00;;;8.00;99.90;;;;;;5018953;28;20817;-75
2021/05/01 05:20:46;;;;;;;8.47;7.67;;;7.90;99.90;;;;;;5014701;28;20439;-74
2021/05/01 05:23:12;;;;;;;8.87;7.97;;;7.90;99.90;;;;;;5014152;28;20430;-75
2021/05/01 05:25:37;;;;;;;13.47;8.30;;;7.90;99.90;;;;;;5017745;28;20439;-75
2021/05/01 05:28:03;;;;;;;10.30;8.50;;;7.90;99.90;;;;;;5016825;28;20920;-74
2021/05/01 05:30:29;;;;;;;9.90;8.03;;;7.80;99.90;;;;;;5018014;28;20198;-75
2021/05/01 05:32:56;;;;;;;10.07;7.50;;;7.80;99.90;;;;;;5015718;28;20446;-74
2021/05/01 05:35:22;;;;;;;9.83;8.87;;;7.90;99.90;;;;;;5016953;28;20214;-74
2021/05/01 05:37:47;;;;;;;7.97;7.17;;;7.90;99.90;;;;;;5013875;28;20453;-75
2021/05/01 05:40:14;;;;;;;9.10;7.30;;;7.80;99.90;;;;;;5011689;28;20436;-75
2021/05/01 05:42:44;;;;;;;8.87;7.97;;;7.90;99.90;;;;;;5021712;28;20276;-75
2021/05/01 05:45:11;;;;;;;10.87;7.90;;;7.90;99.90;;;;;;5017972;28;20755;-75
2021/05/01 05:47:37;;;;;;;8.37;7.57;;;8.00;99.90;;;;;;5016645;28;20492;-74
2021/05/01 05:50:04;;;;;;;10.07;9.07;;;8.00;99.90;;;;;;5017574;28;20465;-73
2021/05/01 05:52:31;;;;;;;8.60;7.90;;;8.00;99.90;;;;;;5015478;28;20441;-75
2021/05/01 05:54:59;;;;;;;8.83;7.97;;;8.00;99.90;;;;;;5001083;28;20483;-76
2021/05/01 05:57:25;;;;;;;10.37;9.30;;;7.90;99.90;;;;;;5016111;28;20425;-75
2021/05/01 05:59:52;;;;;;;13.83;8.90;;;7.90;99.90;;;;;;5014998;28;20433;-74
2021/05/01 06:02:21;;;;;;;13.10;8.90;;;7.80;99.90;;;;;;5016170;28;20464;-72
2021/05/01 06:05:13;;;;;;;11.80;8.43;;;7.90;99.90;;;;;;5013835;28;20436;-72
2021/05/01 06:08:01;;;;;;;12.00;9.13;;;7.90;99.90;;;;;;5010869;28;20588;-72
2021/05/01 06:10:28;;;;;;;9.63;8.60;;;7.90;99.90;;;;;;5021029;28;20425;-71
2021/05/01 06:12:54;;;;;;;12.63;9.70;;;7.90;99.90;;;;;;5021778;28;20882;-71
2021/05/01 06:15:20;;;;;;;9.83;8.67;;;7.90;99.90;;;;;;5018831;28;20448;-72
2021/05/01 06:17:50;;;;;;;12.03;8.80;;;8.00;99.90;;;;;;5017690;28;20465;-72
2021/05/01 06:20:16;;;;;;;10.50;8.80;;;8.00;99.90;;;;;;5034629;28;20433;-72
2021/05/01 06:22:42;;;;;;;12.60;8.47;;;8.00;99.90;;;;;;5017781;28;20465;-72
2021/05/01 06:25:10;;;;;;;12.00;9.00;;;8.10;99.90;;;;;;5017578;28;20464;-72
2021/05/01 06:27:36;;;;;;;10.80;9.50;;;8.10;99.90;;;;;;5015645;28;20429;-72
2021/05/01 06:30:06;;;;;;;11.43;9.27;;;8.20;99.90;;;;;;5008433;28;20550;-72
2021/05/01 06:32:32;;;;;;;9.70;8.30;;;8.20;99.90;;;;;;5017734;28;20189;-72
2021/05/01 06:35:00;;;;;;;8.73;7.97;;;8.20;99.90;;;;;;5017322;28;20460;-71
2021/05/01 06:37:27;;;;;;;10.23;8.80;;;8.30;99.90;;;;;;5018286;28;20451;-72
2021/05/01 06:39:55;;;;;;;8.47;7.67;;;8.40;99.90;;;;;;5016637;28;20521;-73
2021/05/01 06:42:30;;;;;;;15.33;9.80;;;8.40;99.90;;;;;;5015527;28;20948;-72
2021/05/01 06:45:13;;;;;;;11.53;9.50;;;8.30;99.90;;;;;;5017753;28;20439;-73
2021/05/01 06:47:49;;;;;;;11.60;8.47;;;8.40;99.90;;;;;;5015333;28;20456;-72
2021/05/01 06:50:15;;;;;;;10.00;9.07;;;8.40;99.90;;;;;;5016065;28;20912;-70
2021/05/01 06:52:50;;;;;;;9.90;8.90;;;8.50;99.90;;;;;;5015313;28;20428;-70
2021/05/01 06:55:18;;;;;;;9.67;7.63;;;8.60;99.90;;;;;;5014883;28;22105;-70
2021/05/01 06:57:49;;;;;;;10.37;8.20;;;8.70;99.90;;;;;;5020497;28;20584;-70
2021/05/01 07:00:17;;;;;;;9.43;8.50;;;8.80;99.90;;;;;;5024317;28;20427;-72
2021/05/01 07:02:45;;;;;;;9.27;7.83;;;8.90;99.90;;;;;;5016352;28;20429;-76
2021/05/01 07:05:14;;;;;;;10.33;7.77;;;8.90;99.90;;;;;;5017727;28;20448;-72
2021/05/01 07:07:40;;;;;;;9.33;8.37;;;9.00;99.90;;;;;;5012486;28;20768;-74
2021/05/01 07:10:08;;;;;;;10.83;9.27;;;9.10;99.90;;;;;;5013964;28;20707;-71
2021/05/01 07:12:34;;;;;;;8.90;7.80;;;9.00;99.90;;;;;;5004226;28;22435;-71
2021/05/01 07:15:04;;;;;;;8.30;7.40;;;9.20;99.90;;;;;;5004920;28;20865;-71
2021/05/01 07:17:31;;;;;;;8.63;7.83;;;9.30;99.90;;;;;;5011592;28;20453;-71
2021/05/01 07:20:02;;;;;;;10.37;9.27;;;9.40;99.90;;;;;;5012947;28;20433;-71
2021/05/01 07:22:29;;;;;;;9.43;8.10;;;9.30;99.90;;;;;;5012641;28;20431;-71
2021/05/01 07:24:55;;;;;;;7.93;7.20;;;9.30;99.90;;;;;;5013736;28;20448;-71
2021/05/01 07:27:31;;;;;;;9.40;8.40;;;9.40;99.90;;;;;;5010024;28;20555;-71
2021/05/01 07:30:00;;;;;;;8.80;7.50;;;9.50;99.90;;;;;;5009958;28;20485;-72
2021/05/01 07:32:33;;;;;;;9.23;8.23;;;9.60;99.90;;;;;;5009982;28;21454;-72
2021/05/01 07:35:04;;;;;;;10.50;9.30;;;9.70;99.90;;;;;;5012974;28;20456;-71
2021/05/01 07:37:31;;;;;;;9.90;8.87;;;9.70;99.90;;;;;;5009455;28;20445;-71
2021/05/01 07:40:07;;;;;;;8.47;7.53;;;9.60;99.90;;;;;;5007830;28;20960;-71
2021/05/01 07:42:38;;;;;;;8.83;7.33;;;9.70;99.90;;;;;;5013223;28;20546;-71
2021/05/01 07:45:04;;;;;;;9.50;8.50;;;9.80;99.90;;;;;;5011425;28;20442;-71
2021/05/01 07:47:32;;;;;;;9.67;8.30;;;9.80;99.90;;;;;;5009665;28;20464;-71
2021/05/01 07:49:59;;;;;;;9.83;7.37;;;9.70;99.90;;;;;;5011554;28;20440;-71
2021/05/01 07:52:29;;;;;;;10.00;8.63;;;9.70;99.90;;;;;;5011809;28;20433;-71
2021/05/01 07:54:55;;;;;;;8.30;7.40;;;9.90;99.90;;;;;;5015078;28;21017;-71
2021/05/01 07:57:20;;;;;;;12.17;9.40;;;10.00;99.90;;;;;;5013419;28;20523;-71
2021/05/01 07:59:46;;;;;;;10.13;7.83;;;10.20;99.90;;;;;;5015321;28;20551;-71
2021/05/01 08:02:12;;;;;;;10.53;9.43;;;10.30;99.90;;;;;;5010382;28;20190;-71
2021/05/01 08:04:37;;;;;;;8.93;8.03;;;10.40;99.90;;;;;;5014271;28;20200;-71
2021/05/01 08:07:03;;;;;;;8.33;7.60;;;10.60;99.90;;;;;;5010718;28;20189;-71
2021/05/01 08:09:29;;;;;;;9.17;7.80;;;10.80;99.90;;;;;;5019579;28;20218;-70
2021/05/01 08:11:54;;;;;;;9.67;8.07;;;10.80;99.90;;;;;;5021750;28;20182;-70
2021/05/01 08:14:20;;;;;;;9.80;7.73;;;10.90;99.90;;;;;;5016583;28;20178;-70
2021/05/01 08:16:45;;;;;;;8.60;7.77;;;10.90;99.90;;;;;;5015801;28;20193;-70
2021/05/01 08:19:11;;;;;;;9.13;8.33;;;10.90;99.90;;;;;;5015286;28;20568;-71
2021/05/01 08:21:37;;;;;;;9.23;8.40;;;10.90;99.90;;;;;;5014199;28;20173;-71
2021/05/01 08:24:06;;;;;;;9.97;8.70;;;10.90;99.90;;;;;;5015658;28;20183;-71
2021/05/01 08:26:31;;;;;;;7.70;6.83;;;10.90;99.90;;;;;;5016867;28;21840;-71
2021/05/01 08:28:57;;;;;;;10.33;9.27;;;11.00;99.90;;;;;;5016432;28;20430;-71
2021/05/01 08:31:23;;;;;;;12.10;9.37;;;11.10;99.90;;;;;;5017796;28;20261;-70
2021/05/01 08:33:48;;;;;;;9.70;8.70;;;11.10;99.90;;;;;;5016641;28;20178;-70
2021/05/01 08:36:14;;;;;;;11.93;8.50;;;11.20;99.90;;;;;;5013589;28;20206;-70
2021/05/01 08:38:40;;;;;;;9.93;7.73;;;11.30;99.90;;;;;;5017199;28;20601;-71
2021/05/01 08:41:07;;;;;;;10.93;9.63;;;11.50;99.90;;;;;;5015998;28;20191;-70
2021/05/01 08:43:33;;;;;;;9.33;8.43;;;11.50;99.90;;;;;;5015185;28;20428;-71
2021/05/01 08:46:01;;;;;;;10.40;9.00;;;11.60;99.90;;;;;;5015297;28;20430;-71
2021/05/01 08:48:28;;;;;;;9.17;8.13;;;11.70;99.90;;;;;;5020156;28;20440;-71
2021/05/01 08:51:02;;;;;;;11.53;8.70;;;11.80;99.90;;;;;;5017427;28;20945;-71
2021/05/01 08:53:29;;;;;;;10.10;9.10;;;11.90;99.90;;;;;;5008680;28;20443;-71
2021/05/01 08:55:56;;;;;;;10.00;9.00;;;12.10;99.90;;;;;;5011447;28;20449;-71
2021/05/01 08:58:22;;;;;;;9.70;8.80;;;12.10;99.90;;;;;;5007934;28;20440;-71
2021/05/01 09:00:50;;;;;;;11.50;9.40;;;12.30;99.90;;;;;;5007449;28;20426;-71
2021/05/01 09:03:21;;;;;;;10.33;8.60;;;12.40;99.90;;;;;;5013669;28;20426;-71
2021/05/01 09:05:48;;;;;;;10.47;8.47;;;12.50;99.90;;;;;;5012154;28;20519;-71
2021/05/01 09:08:16;;;;;;;10.93;9.80;;;12.80;99.90;;;;;;5011970;28;20905;-71
2021/05/01 09:10:45;;;;;;;12.23;9.50;;;12.90;99.90;;;;;;5009726;28;20433;-71
2021/05/01 09:13:22;;;;;;;10.40;9.40;;;12.80;99.90;;;;;;5012777;28;20512;-70
2021/05/01 09:16:15;;;;;;;9.83;8.90;;;13.00;99.90;;;;;;5012659;28;21000;-70
2021/05/01 09:18:55;;;;;;;10.10;9.00;;;13.30;99.90;;;;;;5009429;28;20438;-71
2021/05/01 09:21:22;;;;;;;9.83;8.20;;;13.30;99.90;;;;;;5007640;28;21062;-71
2021/05/01 09:23:49;;;;;;;8.53;7.77;;;13.30;99.90;;;;;;5007418;28;20445;-71
2021/05/01 09:26:18;;;;;;;9.27;8.37;;;13.50;99.90;;;;;;5010586;28;20910;-71
2021/05/01 09:28:50;;;;;;;8.90;8.07;;;13.80;99.90;;;;;;5014646;28;20482;-71
2021/05/01 09:31:18;;;;;;;9.37;8.57;;;14.10;99.90;;;;;;5014223;28;20919;-71
2021/05/01 09:33:51;;;;;;;9.43;8.60;;;14.50;99.90;;;;;;5014112;28;20469;-71
2021/05/01 09:36:26;;;;;;;9.87;8.97;;;14.60;99.90;;;;;;5028855;28;20456;-71
2021/05/01 09:38:57;;;;;;;10.73;9.60;;;14.70;99.90;;;;;;5013875;28;22325;-71
2021/05/01 09:41:28;;;;;;;12.13;9.70;;;15.00;99.90;;;;;;5016695;28;20429;-71
2021/05/01 09:44:09;;;;;;;9.80;8.57;;;14.80;99.90;;;;;;5029800;28;20449;-71
2021/05/01 09:46:37;;;;;;;10.47;9.47;;;14.40;99.90;;;;;;5020081;28;20448;-71
2021/05/01 09:49:13;;;;;;;10.30;8.17;;;14.00;99.90;;;;;;5020023;28;20796;-71
2021/05/01 09:51:57;;;;;;;9.60;8.53;;;14.00;99.90;;;;;;5022053;28;20893;-71
2021/05/01 09:54:30;;;;;;;9.97;9.07;;;14.20;99.90;;;;;;5021549;28;20867;-71
2021/05/01 09:56:58;;;;;;;12.07;9.43;;;14.50;99.90;;;;;;5021385;28;20499;-71
2021/05/01 09:59:45;;;;;;;9.80;8.87;;;14.50;99.90;;;;;;5020582;28;20752;-71
2021/05/01 10:02:13;;;;;;;11.80;9.33;;;14.50;99.90;;;;;;5017452;28;20425;-71
2021/05/01 10:04:40;;;;;;;10.47;9.40;;;14.40;99.90;;;;;;5020153;28;20459;-71
2021/05/01 10:07:08;;;;;;;10.20;9.20;;;14.10;99.90;;;;;;5020146;28;20441;-71
2021/05/01 10:09:42;;;;;;;12.23;8.90;;;14.10;99.90;;;;;;5020204;28;20934;-71
2021/05/01 10:12:11;;;;;;;13.63;9.10;;;14.00;99.90;;;;;;5020212;28;20903;-70
2021/05/01 10:14:46;;;;;;;9.13;8.30;;;14.10;99.90;;;;;;5021617;28;20480;-71
2021/05/01 10:17:16;;;;;;;10.10;9.10;;;14.50;99.90;;;;;;5019457;28;20425;-71
2021/05/01 10:20:05;;;;;;;10.10;8.70;;;14.70;99.90;;;;;;5022734;28;20405;-71
2021/05/01 10:22:42;;;;;;;15.03;12.20;;;14.80;99.90;;;;;;5020594;28;20424;-70
2021/05/01 10:25:08;;;;;;;9.50;8.60;;;14.60;99.90;;;;;;5022507;28;20443;-70
2021/05/01 10:27:57;;;;;;;10.87;9.30;;;14.30;99.90;;;;;;5017333;28;20429;-70
2021/05/01 10:30:29;;;;;;;10.00;9.00;;;14.20;99.90;;;;;;5021388;28;20724;-70
2021/05/01 10:33:24;;;;;;;9.13;8.33;;;14.40;99.90;;;;;;5019767;28;20497;-71
2021/05/01 10:36:30;;;;;;;9.17;8.37;;;14.50;99.90;;;;;;5015907;28;20461;-71
2021/05/01 10:39:07;;;;;;;10.60;9.07;;;14.40;99.90;;;;;;5020558;28;20732;-70
2021/05/01 10:41:36;;;;;;;9.40;8.60;;;14.40;99.90;;;;;;5022782;28;20396;-70
2021/05/01 10:44:07;;;;;;;9.30;8.50;;;14.50;99.90;;;;;;5020765;28;20491;-71
2021/05/01 10:46:34;;;;;;;9.30;8.33;;;14.50;99.90;;;;;;5019312;28;20426;-70
2021/05/01 10:49:06;;;;;;;11.87;9.10;;;14.40;99.90;;;;;;5022185;28;20812;-70
2021/05/01 10:51:46;;;;;;;11.33;10.23;;;14.30;99.90;;;;;;5021775;28;20433;-70
2021/05/01 10:54:14;;;;;;;10.40;9.40;;;14.40;99.90;;;;;;5021538;28;20440;-70
2021/05/01 10:56:46;;;;;;;9.07;8.27;;;14.50;99.90;;;;;;5012266;28;20441;-70
2021/05/01 10:59:17;;;;;;;9.60;8.57;;;14.90;99.90;;;;;;5011627;28;20424;-71
2021/05/01 11:01:48;;;;;;;10.33;9.37;;;15.20;99.90;;;;;;5010612;28;20480;-70
2021/05/01 11:04:19;;;;;;;10.10;9.20;;;15.40;99.90;;;;;;5003716;28;20430;-70
2021/05/01 11:06:48;;;;;;;9.13;8.23;;;15.20;99.90;;;;;;5007670;28;20508;-71
2021/05/01 11:09:38;;;;;;;10.87;9.70;;;14.90;99.90;;;;;;5010114;28;20767;-71
2021/05/01 11:12:07;;;;;;;11.30;8.53;;;14.60;99.90;;;;;;5002258;28;20529;-70
2021/05/01 11:14:57;;;;;;;10.97;9.30;;;14.10;99.90;;;;;;5011668;28;20461;-70
2021/05/01 11:17:32;;;;;;;9.67;8.67;;;13.90;99.90;;;;;;5005218;28;20421;-69
2021/05/01 11:20:04;;;;;;;8.90;7.30;;;13.70;99.90;;;;;;5011014;28;20817;-69
2021/05/01 11:22:34;;;;;;;10.27;8.77;;;13.60;99.90;;;;;;5008915;28;20425;-69
2021/05/01 11:25:07;;;;;;;9.40;7.97;;;13.50;99.90;;;;;;5013266;28;20433;-69
2021/05/01 11:27:33;;;;;;;8.80;7.90;;;13.60;99.90;;;;;;5009551;28;20505;-69
2021/05/01 11:29:59;;;;;;;7.60;6.93;;;13.90;99.90;;;;;;5010696;28;20526;-70
2021/05/01 11:32:27;;;;;;;8.37;6.93;;;13.90;99.90;;;;;;5010393;28;20552;-69
2021/05/01 11:35:14;;;;;;;7.13;6.63;;;13.90;99.90;;;;;;5010205;28;20540;-70
2021/05/01 11:37:51;;;;;;;6.90;6.27;;;13.80;99.90;;;;;;5008694;28;20480;-70
2021/05/01 11:40:19;;;;;;;6.50;6.00;;;14.00;99.90;;;;;;5019862;28;20408;-69
2021/05/01 11:42:46;;;;;;;6.50;6.00;;;14.30;99.90;;;;;;5023308;28;20475;-69
2021/05/01 11:45:17;;;;;;;6.23;5.70;;;14.50;99.90;;;;;;5011138;28;20811;-70
2021/05/01 11:47:53;;;;;;;7.57;6.77;;;14.50;99.90;;;;;;5011031;28;20461;-71
2021/05/01 11:50:20;;;;;;;5.87;5.33;;;14.50;99.90;;;;;;5013679;28;20439;-71
2021/05/01 11:53:08;;;;;;;7.20;6.60;;;14.30;99.90;;;;;;5012966;28;21086;-70
2021/05/01 11:55:45;;;;;;;6.97;6.40;;;14.10;99.90;;;;;;5013587;28;20777;-70
2021/05/01 11:58:31;;;;;;;9.00;6.80;;;13.80;99.90;;;;;;5014109;28;20526;-70
2021/05/01 12:01:19;;;;;;;7.40;6.57;;;13.70;99.90;;;;;;5016314;28;20753;-70
2021/05/01 12:03:57;;;;;;;7.90;7.17;;;13.50;99.90;;;;;;5007271;28;20511;-71
2021/05/01 12:06:29;;;;;;;8.53;7.63;;;13.40;99.90;;;;;;5011908;28;20926;-71
2021/05/01 12:09:11;;;;;;;8.73;7.93;;;13.30;99.90;;;;;;5012153;28;20428;-71
2021/05/01 12:11:37;;;;;;;9.13;8.13;;;13.20;99.90;;;;;;5012836;28;20807;-70
2021/05/01 12:14:08;;;;;;;9.20;8.30;;;13.40;99.90;;;;;;5012274;28;20433;-71
2021/05/01 12:16:35;;;;;;;7.87;7.07;;;13.30;99.90;;;;;;5009168;28;20465;-70
2021/05/01 12:19:00;;;;;;;7.20;6.50;;;13.20;99.90;;;;;;5011792;28;21021;-70
2021/05/01 12:21:31;;;;;;;7.10;6.50;;;13.10;99.90;;;;;;5013977;28;20520;-70
2021/05/01 12:23:59;;;;;;;5.93;5.47;;;13.20;99.90;;;;;;5021740;28;20237;-70
2021/05/01 12:26:36;;;;;;;8.13;7.33;;;13.30;99.90;;;;;;5013140;28;20455;-70
2021/05/01 12:29:17;;;;;;;7.07;6.47;;;13.40;99.90;;;;;;5010612;28;20433;-70
2021/05/01 12:31:45;;;;;;;11.23;7.87;;;13.40;99.90;;;;;;5014921;28;20906;-70
2021/05/01 12:34:11;;;;;;;10.33;9.00;;;13.30;99.90;;;;;;5014785;28;20455;-70
2021/05/01 12:36:44;;;;;;;8.93;8.03;;;13.30;99.90;;;;;;5022767;28;20468;-70
2021/05/01 12:39:11;;;;;;;9.27;8.37;;;13.40;99.90;;;;;;5021620;28;20173;-72
2021/05/01 12:41:42;;;;;;;9.63;8.73;;;13.30;99.90;;;;;;5018600;28;20433;-71
2021/05/01 12:44:08;;;;;;;9.30;8.40;;;13.00;99.90;;;;;;5012544;28;20456;-71
2021/05/01 12:46:37;;;;;;;8.60;7.80;;;12.80;99.90;;;;;;5020653;28;20428;-71
2021/05/01 12:49:05;;;;;;;12.60;9.33;;;12.70;99.90;;;;;;5019449;28;20785;-71
2021/05/01 12:51:35;;;;;;;10.03;8.83;;;12.50;99.90;;;;;;5021108;28;20421;-71
2021/05/01 12:54:21;;;;;;;10.37;8.97;;;12.30;99.90;;;;;;5019723;28;20422;-71
2021/05/01 12:56:55;;;;;;;10.77;9.20;;;12.30;99.90;;;;;;5016557;28;20441;-71